Suffolk, VA

12:37 PM EDT on August 31, 2016 (GMT -0400)
Suffolk Municipal | | Change Station

Elev 72 ft 36.68 °N, 76.60 °W | Updated 22 minutes ago

Mostly Cloudy
Mostly Cloudy
86 °F
Feels Like 89 °F
N
4
Wind Variable Wind from NNE

Today
High -- | Low -- °F
--% Chance of Precip.
Yesterday
High -- | Low -- °F
Precip. -- in
Pressure 29.98 in
Visibility 10.0 miles
Clouds Mostly Cloudy 5000 ft
Heat Index 89 °F
Dew Point 68 °F
Humidity 53%
Rainfall 0.00 in
Snow Depth Not available.
6:37 AM 7:35 PM
Waning Crescent, 0% visible
METAR KSFQ 311615Z AUTO 03003KT 10SM BKN050 30/20 A2998 RMK AO2 T03010197
Pressure 29.98 in
Visibility 10.0 miles
Clouds Mostly Cloudy 5000 ft
Heat Index 89 °F
Dew Point 68 °F
Humidity 53%
Rainfall 0.00 in
Snow Depth Not available.
6:37 AM 7:35 PM
Waning Crescent, 0% visible
METAR KSFQ 311615Z AUTO 03003KT 10SM BKN050 30/20 A2998 RMK AO2 T03010197

10-Day Weather Forecast

Almanac

Astronomy

Aug. 31, 2016 Rise Set
Actual Time
Civil Twilight
Nautical Twilight
Astronomical Twilight
Moon
Length of Visible Light
Length of Day
Tomorrow will be .
, % of the Moon is Illuminated

Today's Extremes

State Highs State Lows

Community

WunderPhotos

Upload Photos

1,936,115 photos uploaded!

WunderBlog® & News

Nearby

Air Quality

  Air Quality AQ Index Pollutant
Not available.

Snow Depth

Station Depth Elevation

Earthquake Activity

City Distance Mag. Time & Date
Minimum magnitude displayed is 2.5.

Coastal Water Temperatures

Place Temperature

Stations

Nearby Weather Stations

Station Location Temp. Windchill Dew Point Humidity Wind Precip. Elev Updated Type
                   

Watches & Warnings

There are currently no watches in effect.